sensor_id;sensor_type;location;lat;lon;timestamp;P1;P2;P0
46591;PMS6003;32314;48.748;9.656;2023-03-23T00:01:21;3.00;3.00;2.33
46591;PMS6003;32314;48.748;9.656;2023-03-23T00:04:07;4.00;3.00;1.00
46591;PMS6003;32314;48.748;9.656;2023-03-23T00:06:53;3.00;3.00;2.33
46591;PMS6003;32314;48.748;9.656;2023-03-23T00:09:39;3.00;3.00;1.00
46591;PMS6003;32314;48.748;9.656;2023-03-23T00:12:26;1.00;1.00;1.00
46591;PMS6003;32314;48.748;9.656;2023-03-23T00:15:19;3.00;3.00;1.00
46591;PMS6003;32314;48.748;9.656;2023-03-23T00:18:05;2.33;2.33;2.33
46591;PMS6003;32314;48.748;9.656;2023-03-23T00:20:55;3.67;3.67;3.00
46591;PMS6003;32314;48.748;9.656;2023-03-23T00:23:41;3.00;3.00;3.00
46591;PMS6003;32314;48.748;9.656;2023-03-23T00:26:30;3.00;3.00;2.33
46591;PMS6003;32314;48.748;9.656;2023-03-23T00:29:19;3.00;2.33;2.33
46591;PMS6003;32314;48.748;9.656;2023-03-23T00:32:09;3.67;3.00;3.00
46591;PMS6003;32314;48.748;9.656;2023-03-23T00:34:58;6.67;6.67;6.00
46591;PMS6003;32314;48.748;9.656;2023-03-23T00:37:44;8.67;7.00;5.67
46591;PMS6003;32314;48.748;9.656;2023-03-23T00:40:30;11.00;7.00;5.00
46591;PMS6003;32314;48.748;9.656;2023-03-23T00:43:19;9.00;4.00;4.00
46591;PMS6003;32314;48.748;9.656;2023-03-23T00:46:06;3.00;0.33;0.00
46591;PMS6003;32314;48.748;9.656;2023-03-23T00:48:55;7.00;6.00;3.00
46591;PMS6003;32314;48.748;9.656;2023-03-23T00:51:42;9.00;9.00;5.67
46591;PMS6003;32314;48.748;9.656;2023-03-23T00:54:28;5.67;5.67;5.00
46591;PMS6003;32314;48.748;9.656;2023-03-23T00:57:14;7.33;4.00;4.00
46591;PMS6003;32314;48.748;9.656;2023-03-23T01:00:02;1.00;1.00;1.00
46591;PMS6003;32314;48.748;9.656;2023-03-23T01:02:55;4.00;4.00;3.00
46591;PMS6003;32314;48.748;9.656;2023-03-23T01:05:40;3.33;3.33;3.00
46591;PMS6003;32314;48.748;9.656;2023-03-23T01:08:27;5.33;3.00;3.00
46591;PMS6003;32314;48.748;9.656;2023-03-23T01:11:13;8.67;8.67;6.67
46591;PMS6003;32314;48.748;9.656;2023-03-23T01:14:00;1.00;1.00;1.00
46591;PMS6003;32314;48.748;9.656;2023-03-23T01:16:47;3.00;3.00;3.00
46591;PMS6003;32314;48.748;9.656;2023-03-23T01:19:32;1.00;1.00;1.00
46591;PMS6003;32314;48.748;9.656;2023-03-23T01:22:18;6.00;3.00;0.00
46591;PMS6003;32314;48.748;9.656;2023-03-23T01:25:05;9.00;6.00;5.00
46591;PMS6003;32314;48.748;9.656;2023-03-23T01:27:52;5.33;5.33;3.67
46591;PMS6003;32314;48.748;9.656;2023-03-23T01:30:38;3.00;3.00;3.00
46591;PMS6003;32314;48.748;9.656;2023-03-23T01:33:23;6.00;1.00;1.00
46591;PMS6003;32314;48.748;9.656;2023-03-23T01:36:11;3.00;3.00;1.00
46591;PMS6003;32314;48.748;9.656;2023-03-23T01:39:00;4.67;4.00;3.00
46591;PMS6003;32314;48.748;9.656;2023-03-23T01:41:49;3.00;3.00;1.67
46591;PMS6003;32314;48.748;9.656;2023-03-23T01:47:27;1.00;1.00;1.00
46591;PMS6003;32314;48.748;9.656;2023-03-23T01:50:13;2.00;1.00;1.00
46591;PMS6003;32314;48.748;9.656;2023-03-23T01:53:00;7.33;7.33;6.67
46591;PMS6003;32314;48.748;9.656;2023-03-23T01:55:47;9.00;9.00;7.33
46591;PMS6003;32314;48.748;9.656;2023-03-23T01:58:35;11.00;11.00;10.33
46591;PMS6003;32314;48.748;9.656;2023-03-23T02:01:23;7.33;7.33;6.00
46591;PMS6003;32314;48.748;9.656;2023-03-23T02:04:13;3.67;3.67;3.00
46591;PMS6003;32314;48.748;9.656;2023-03-23T02:07:01;7.00;7.00;3.67
46591;PMS6003;32314;48.748;9.656;2023-03-23T02:09:49;16.00;12.00;7.67
46591;PMS6003;32314;48.748;9.656;2023-03-23T02:12:35;8.33;8.33;6.00
46591;PMS6003;32314;48.748;9.656;2023-03-23T02:15:22;9.67;7.00;6.00
46591;PMS6003;32314;48.748;9.656;2023-03-23T02:18:16;3.00;3.00;3.00
46591;PMS6003;32314;48.748;9.656;2023-03-23T02:30:43;7.00;7.00;6.00
46591;PMS6003;32314;48.748;9.656;2023-03-23T02:33:43;9.00;7.67;7.00
46591;PMS6003;32314;48.748;9.656;2023-03-23T02:36:35;6.33;6.33;5.33
46591;PMS6003;32314;48.748;9.656;2023-03-23T02:39:24;10.33;8.00;6.00
46591;PMS6003;32314;48.748;9.656;2023-03-23T02:42:13;8.00;7.00;4.00
46591;PMS6003;32314;48.748;9.656;2023-03-23T02:45:03;3.00;3.00;3.00
46591;PMS6003;32314;48.748;9.656;2023-03-23T02:47:50;4.00;1.00;1.00
46591;PMS6003;32314;48.748;9.656;2023-03-23T02:50:38;3.00;3.00;3.00
46591;PMS6003;32314;48.748;9.656;2023-03-23T02:53:25;1.67;1.67;1.67
46591;PMS6003;32314;48.748;9.656;2023-03-23T02:56:12;3.00;3.00;2.33
46591;PMS6003;32314;48.748;9.656;2023-03-23T02:59:00;3.00;3.00;3.00
46591;PMS6003;32314;48.748;9.656;2023-03-23T03:01:52;3.00;1.00;0.67
46591;PMS6003;32314;48.748;9.656;2023-03-23T03:04:50;3.00;3.00;3.00
46591;PMS6003;32314;48.748;9.656;2023-03-23T03:11:25;6.33;1.67;1.00
46591;PMS6003;32314;48.748;9.656;2023-03-23T03:14:13;1.67;1.67;1.67
46591;PMS6003;32314;48.748;9.656;2023-03-23T03:17:17;5.33;5.33;4.33
46591;PMS6003;32314;48.748;9.656;2023-03-23T03:20:08;7.33;7.33;5.67
46591;PMS6003;32314;48.748;9.656;2023-03-23T03:22:59;7.00;7.00;5.33
46591;PMS6003;32314;48.748;9.656;2023-03-23T03:25:47;3.67;1.67;1.00
46591;PMS6003;32314;48.748;9.656;2023-03-23T03:28:39;2.33;2.33;1.00
46591;PMS6003;32314;48.748;9.656;2023-03-23T03:31:28;1.00;1.00;1.00
46591;PMS6003;32314;48.748;9.656;2023-03-23T03:34:16;1.00;1.00;1.00
46591;PMS6003;32314;48.748;9.656;2023-03-23T03:37:05;3.00;3.00;1.00
46591;PMS6003;32314;48.748;9.656;2023-03-23T03:39:52;4.67;2.33;2.33
46591;PMS6003;32314;48.748;9.656;2023-03-23T03:42:39;5.67;5.67;3.67
46591;PMS6003;32314;48.748;9.656;2023-03-23T03:45:27;7.67;6.67;5.00
46591;PMS6003;32314;48.748;9.656;2023-03-23T03:48:13;5.00;5.00;5.00
46591;PMS6003;32314;48.748;9.656;2023-03-23T03:50:59;6.33;6.33;4.67
46591;PMS6003;32314;48.748;9.656;2023-03-23T03:53:49;4.00;4.00;3.00
46591;PMS6003;32314;48.748;9.656;2023-03-23T03:56:35;2.00;2.00;1.33
46591;PMS6003;32314;48.748;9.656;2023-03-23T03:59:37;0.00;0.00;0.00
46591;PMS6003;32314;48.748;9.656;2023-03-23T04:02:32;3.00;0.50;0.50
46591;PMS6003;32314;48.748;9.656;2023-03-23T04:05:18;3.00;0.00;0.00
46591;PMS6003;32314;48.748;9.656;2023-03-23T04:08:07;1.50;1.50;1.00
46591;PMS6003;32314;48.748;9.656;2023-03-23T04:10:53;4.00;4.00;3.00
46591;PMS6003;32314;48.748;9.656;2023-03-23T04:13:40;3.67;3.67;3.00
46591;PMS6003;32314;48.748;9.656;2023-03-23T04:16:36;5.00;5.00;3.67
46591;PMS6003;32314;48.748;9.656;2023-03-23T04:19:22;2.75;2.75;2.00
46591;PMS6003;32314;48.748;9.656;2023-03-23T04:22:08;4.33;3.67;3.00
46591;PMS6003;32314;48.748;9.656;2023-03-23T04:24:57;4.00;1.50;1.00
46591;PMS6003;32314;48.748;9.656;2023-03-23T04:27:44;5.00;3.67;3.00
46591;PMS6003;32314;48.748;9.656;2023-03-23T04:30:32;4.00;4.00;3.33
46591;PMS6003;32314;48.748;9.656;2023-03-23T04:33:27;4.00;4.00;3.00
46591;PMS6003;32314;48.748;9.656;2023-03-23T04:36:13;2.67;2.67;2.00
46591;PMS6003;32314;48.748;9.656;2023-03-23T04:39:09;6.33;4.67;4.00
46591;PMS6003;32314;48.748;9.656;2023-03-23T04:41:56;1.00;1.00;0.67
46591;PMS6003;32314;48.748;9.656;2023-03-23T04:45:06;3.67;3.00;2.67
46591;PMS6003;32314;48.748;9.656;2023-03-23T04:47:56;4.00;4.00;3.00
46591;PMS6003;32314;48.748;9.656;2023-03-23T04:50:54;3.00;3.00;2.67
46591;PMS6003;32314;48.748;9.656;2023-03-23T04:53:46;5.00;3.00;2.00
46591;PMS6003;32314;48.748;9.656;2023-03-23T04:56:32;5.00;4.00;4.00
46591;PMS6003;32314;48.748;9.656;2023-03-23T04:59:24;4.67;4.67;4.00
46591;PMS6003;32314;48.748;9.656;2023-03-23T05:02:33;5.00;5.00;4.00
46591;PMS6003;32314;48.748;9.656;2023-03-23T05:05:19;7.33;5.33;5.00
46591;PMS6003;32314;48.748;9.656;2023-03-23T05:08:06;8.33;8.33;5.33
46591;PMS6003;32314;48.748;9.656;2023-03-23T05:10:56;9.00;6.00;5.67
46591;PMS6003;32314;48.748;9.656;2023-03-23T05:13:46;10.00;10.00;6.67
46591;PMS6003;32314;48.748;9.656;2023-03-23T05:16:32;8.33;8.33;7.00
46591;PMS6003;32314;48.748;9.656;2023-03-23T05:19:20;8.67;8.67;7.33
46591;PMS6003;32314;48.748;9.656;2023-03-23T05:22:07;5.33;5.33;4.33
46591;PMS6003;32314;48.748;9.656;2023-03-23T05:25:04;7.00;7.00;6.00
46591;PMS6003;32314;48.748;9.656;2023-03-23T05:27:54;11.67;11.00;9.00
46591;PMS6003;32314;48.748;9.656;2023-03-23T05:30:56;5.00;4.00;4.00
46591;PMS6003;32314;48.748;9.656;2023-03-23T05:33:47;9.00;8.33;6.00
46591;PMS6003;32314;48.748;9.656;2023-03-23T05:36:35;4.00;4.00;4.00
46591;PMS6003;32314;48.748;9.656;2023-03-23T05:39:30;3.33;0.00;0.00
46591;PMS6003;32314;48.748;9.656;2023-03-23T05:42:39;3.00;3.00;3.00
46591;PMS6003;32314;48.748;9.656;2023-03-23T05:45:34;9.67;8.00;6.33
46591;PMS6003;32314;48.748;9.656;2023-03-23T05:48:20;3.67;3.67;3.00
46591;PMS6003;32314;48.748;9.656;2023-03-23T05:51:06;4.00;4.00;3.67
46591;PMS6003;32314;48.748;9.656;2023-03-23T05:53:56;3.00;3.00;2.33
46591;PMS6003;32314;48.748;9.656;2023-03-23T05:56:42;1.00;1.00;1.00
46591;PMS6003;32314;48.748;9.656;2023-03-23T05:59:28;2.67;2.67;2.00
46591;PMS6003;32314;48.748;9.656;2023-03-23T06:02:16;1.00;1.00;1.00
46591;PMS6003;32314;48.748;9.656;2023-03-23T06:05:02;5.33;5.33;5.33
46591;PMS6003;32314;48.748;9.656;2023-03-23T06:07:51;5.00;5.00;4.33
46591;PMS6003;32314;48.748;9.656;2023-03-23T06:10:38;5.33;5.33;5.00
46591;PMS6003;32314;48.748;9.656;2023-03-23T06:13:24;6.00;6.00;4.67
46591;PMS6003;32314;48.748;9.656;2023-03-23T06:16:14;6.00;6.00;5.67
46591;PMS6003;32314;48.748;9.656;2023-03-23T06:19:15;6.67;6.67;5.67
46591;PMS6003;32314;48.748;9.656;2023-03-23T06:22:11;2.00;2.00;1.00
46591;PMS6003;32314;48.748;9.656;2023-03-23T06:25:15;4.00;4.00;3.00
46591;PMS6003;32314;48.748;9.656;2023-03-23T06:28:03;11.00;9.67;7.33
46591;PMS6003;32314;48.748;9.656;2023-03-23T06:31:01;12.67;11.00;9.33
46591;PMS6003;32314;48.748;9.656;2023-03-23T06:33:50;11.67;10.00;7.67
46591;PMS6003;32314;48.748;9.656;2023-03-23T06:36:57;11.00;11.00;9.00
46591;PMS6003;32314;48.748;9.656;2023-03-23T06:39:53;11.33;9.33;8.00
46591;PMS6003;32314;48.748;9.656;2023-03-23T06:42:50;1.50;1.50;1.50
46591;PMS6003;32314;48.748;9.656;2023-03-23T06:45:54;14.75;13.00;9.75
46591;PMS6003;32314;48.748;9.656;2023-03-23T06:49:03;12.33;11.00;9.00
46591;PMS6003;32314;48.748;9.656;2023-03-23T06:51:57;14.33;11.33;10.00
46591;PMS6003;32314;48.748;9.656;2023-03-23T06:54:44;12.33;12.33;10.33
46591;PMS6003;32314;48.748;9.656;2023-03-23T06:57:32;13.25;13.25;11.00
46591;PMS6003;32314;48.748;9.656;2023-03-23T07:00:18;11.00;11.00;8.50
46591;PMS6003;32314;48.748;9.656;2023-03-23T07:03:04;15.67;15.67;10.33
46591;PMS6003;32314;48.748;9.656;2023-03-23T07:05:54;16.25;13.75;11.00
46591;PMS6003;32314;48.748;9.656;2023-03-23T07:08:45;15.00;15.00;10.00
46591;PMS6003;32314;48.748;9.656;2023-03-23T07:11:36;16.25;13.00;11.00
46591;PMS6003;32314;48.748;9.656;2023-03-23T07:14:30;21.00;21.00;16.00
46591;PMS6003;32314;48.748;9.656;2023-03-23T07:17:17;21.33;21.33;17.00
46591;PMS6003;32314;48.748;9.656;2023-03-23T07:20:23;10.75;9.75;9.00
46591;PMS6003;32314;48.748;9.656;2023-03-23T07:23:09;14.75;13.00;10.25
46591;PMS6003;32314;48.748;9.656;2023-03-23T07:26:02;5.50;5.50;3.00
46591;PMS6003;32314;48.748;9.656;2023-03-23T07:29:09;7.75;7.75;6.25
46591;PMS6003;32314;48.748;9.656;2023-03-23T07:32:00;4.00;4.00;4.00
46591;PMS6003;32314;48.748;9.656;2023-03-23T07:34:49;12.25;11.75;8.25
46591;PMS6003;32314;48.748;9.656;2023-03-23T07:37:56;11.00;8.75;7.25
46591;PMS6003;32314;48.748;9.656;2023-03-23T07:40:42;14.00;9.75;7.00
46591;PMS6003;32314;48.748;9.656;2023-03-23T07:43:34;7.50;7.50;6.00
46591;PMS6003;32314;48.748;9.656;2023-03-23T07:46:30;8.25;8.25;7.25
46591;PMS6003;32314;48.748;9.656;2023-03-23T07:49:34;11.75;10.50;7.25
46591;PMS6003;32314;48.748;9.656;2023-03-23T07:52:44;7.25;7.25;5.50
46591;PMS6003;32314;48.748;9.656;2023-03-23T07:55:31;9.50;8.00;7.00
46591;PMS6003;32314;48.748;9.656;2023-03-23T07:58:23;10.75;10.75;9.25
46591;PMS6003;32314;48.748;9.656;2023-03-23T08:01:14;14.75;13.00;12.00
46591;PMS6003;32314;48.748;9.656;2023-03-23T08:04:04;13.00;13.00;10.00
46591;PMS6003;32314;48.748;9.656;2023-03-23T08:07:11;11.25;11.25;8.00
46591;PMS6003;32314;48.748;9.656;2023-03-23T08:10:17;13.50;13.00;10.00
46591;PMS6003;32314;48.748;9.656;2023-03-23T08:13:12;12.75;12.75;10.50
46591;PMS6003;32314;48.748;9.656;2023-03-23T08:16:10;13.75;9.75;8.25
46591;PMS6003;32314;48.748;9.656;2023-03-23T08:19:19;7.00;6.00;4.50
46591;PMS6003;32314;48.748;9.656;2023-03-23T08:22:19;12.00;12.00;11.00
46591;PMS6003;32314;48.748;9.656;2023-03-23T08:25:29;13.00;13.00;11.00
46591;PMS6003;32314;48.748;9.656;2023-03-23T08:28:52;13.25;13.25;10.75
46591;PMS6003;32314;48.748;9.656;2023-03-23T08:32:11;11.25;11.25;10.00
46591;PMS6003;32314;48.748;9.656;2023-03-23T08:34:57;11.50;11.50;9.00
46591;PMS6003;32314;48.748;9.656;2023-03-23T08:38:02;6.00;6.00;5.00
46591;PMS6003;32314;48.748;9.656;2023-03-23T08:41:14;12.50;12.50;9.00
46591;PMS6003;32314;48.748;9.656;2023-03-23T08:44:16;6.25;6.25;5.50
46591;PMS6003;32314;48.748;9.656;2023-03-23T08:47:24;3.00;3.00;2.75
46591;PMS6003;32314;48.748;9.656;2023-03-23T08:50:29;3.00;3.00;3.00
46591;PMS6003;32314;48.748;9.656;2023-03-23T08:53:20;3.00;3.00;2.50
46591;PMS6003;32314;48.748;9.656;2023-03-23T08:56:10;3.75;3.75;2.75
46591;PMS6003;32314;48.748;9.656;2023-03-23T08:59:27;3.75;3.75;3.00
46591;PMS6003;32314;48.748;9.656;2023-03-23T09:02:22;3.00;3.00;2.50
46591;PMS6003;32314;48.748;9.656;2023-03-23T09:05:32;3.00;3.00;2.25
46591;PMS6003;32314;48.748;9.656;2023-03-23T09:08:22;3.25;3.25;3.25
46591;PMS6003;32314;48.748;9.656;2023-03-23T09:11:09;3.00;3.00;2.00
46591;PMS6003;32314;48.748;9.656;2023-03-23T09:13:55;3.75;3.75;3.00
46591;PMS6003;32314;48.748;9.656;2023-03-23T09:16:41;3.00;3.00;3.00
46591;PMS6003;32314;48.748;9.656;2023-03-23T09:19:27;1.75;1.75;1.00
46591;PMS6003;32314;48.748;9.656;2023-03-23T09:22:13;4.00;4.00;3.00
46591;PMS6003;32314;48.748;9.656;2023-03-23T09:25:00;4.00;4.00;3.00
46591;PMS6003;32314;48.748;9.656;2023-03-23T09:27:53;4.50;4.50;3.75
46591;PMS6003;32314;48.748;9.656;2023-03-23T09:30:41;4.75;4.75;3.50
46591;PMS6003;32314;48.748;9.656;2023-03-23T09:33:30;4.00;4.00;3.00
46591;PMS6003;32314;48.748;9.656;2023-03-23T09:36:21;3.75;3.75;3.00
46591;PMS6003;32314;48.748;9.656;2023-03-23T09:39:11;4.50;3.00;2.00
46591;PMS6003;32314;48.748;9.656;2023-03-23T09:54:10;2.00;2.00;2.00
46591;PMS6003;32314;48.748;9.656;2023-03-23T09:57:43;2.00;2.00;2.00
46591;PMS6003;32314;48.748;9.656;2023-03-23T10:03:46;3.00;3.00;2.25
46591;PMS6003;32314;48.748;9.656;2023-03-23T10:06:42;2.00;2.00;2.00
46591;PMS6003;32314;48.748;9.656;2023-03-23T10:09:36;2.00;2.00;2.00
46591;PMS6003;32314;48.748;9.656;2023-03-23T10:12:30;2.00;2.00;2.00
46591;PMS6003;32314;48.748;9.656;2023-03-23T10:15:38;4.75;3.00;3.00
46591;PMS6003;32314;48.748;9.656;2023-03-23T10:18:37;1.00;1.00;1.00
46591;PMS6003;32314;48.748;9.656;2023-03-23T10:21:56;1.00;1.00;1.00
46591;PMS6003;32314;48.748;9.656;2023-03-23T10:27:49;2.00;2.00;1.00
46591;PMS6003;32314;48.748;9.656;2023-03-23T10:30:57;1.00;1.00;1.00
46591;PMS6003;32314;48.748;9.656;2023-03-23T10:33:44;3.00;3.00;2.75
46591;PMS6003;32314;48.748;9.656;2023-03-23T10:36:35;1.25;1.25;1.00
46591;PMS6003;32314;48.748;9.656;2023-03-23T10:39:26;2.00;2.00;2.00
46591;PMS6003;32314;48.748;9.656;2023-03-23T10:42:53;3.25;1.75;1.75
46591;PMS6003;32314;48.748;9.656;2023-03-23T10:45:32;1.75;1.75;1.50
46591;PMS6003;32314;48.748;9.656;2023-03-23T10:48:21;2.00;2.00;2.00
46591;PMS6003;32314;48.748;9.656;2023-03-23T10:51:21;2.00;2.00;1.75
46591;PMS6003;32314;48.748;9.656;2023-03-23T10:54:25;1.00;1.00;1.00
46591;PMS6003;32314;48.748;9.656;2023-03-23T10:57:21;2.00;2.00;1.75
46591;PMS6003;32314;48.748;9.656;2023-03-23T11:00:18;2.00;2.00;1.50
46591;PMS6003;32314;48.748;9.656;2023-03-23T11:03:41;1.75;1.75;1.50
46591;PMS6003;32314;48.748;9.656;2023-03-23T11:06:38;2.00;2.00;2.00
46591;PMS6003;32314;48.748;9.656;2023-03-23T11:09:50;2.00;2.00;2.00
46591;PMS6003;32314;48.748;9.656;2023-03-23T11:12:46;1.00;1.00;1.00
46591;PMS6003;32314;48.748;9.656;2023-03-23T11:15:44;1.50;1.50;1.00
46591;PMS6003;32314;48.748;9.656;2023-03-23T11:18:36;1.00;1.00;1.00
46591;PMS6003;32314;48.748;9.656;2023-03-23T11:21:25;2.00;2.00;2.00
46591;PMS6003;32314;48.748;9.656;2023-03-23T11:24:12;2.25;2.25;2.25
46591;PMS6003;32314;48.748;9.656;2023-03-23T11:26:59;2.25;2.25;2.00
46591;PMS6003;32314;48.748;9.656;2023-03-23T11:29:53;1.75;1.75;1.00
46591;PMS6003;32314;48.748;9.656;2023-03-23T11:32:42;1.50;1.50;1.00
46591;PMS6003;32314;48.748;9.656;2023-03-23T11:35:29;1.75;1.75;1.50
46591;PMS6003;32314;48.748;9.656;2023-03-23T11:38:19;2.00;2.00;2.00
46591;PMS6003;32314;48.748;9.656;2023-03-23T11:41:10;2.00;2.00;2.00
46591;PMS6003;32314;48.748;9.656;2023-03-23T11:43:57;2.00;2.00;2.00
46591;PMS6003;32314;48.748;9.656;2023-03-23T11:47:03;2.00;2.00;2.00
46591;PMS6003;32314;48.748;9.656;2023-03-23T11:50:00;4.00;2.25;2.00
46591;PMS6003;32314;48.748;9.656;2023-03-23T11:58:31;1.50;1.50;1.00
46591;PMS6003;32314;48.748;9.656;2023-03-23T12:01:46;2.00;2.00;2.00
46591;PMS6003;32314;48.748;9.656;2023-03-23T12:10:52;2.50;2.50;2.00
46591;PMS6003;32314;48.748;9.656;2023-03-23T12:23:59;2.00;2.00;2.00
46591;PMS6003;32314;48.748;9.656;2023-03-23T12:26:50;2.25;2.25;2.00
46591;PMS6003;32314;48.748;9.656;2023-03-23T12:32:54;2.25;2.25;2.00
46591;PMS6003;32314;48.748;9.656;2023-03-23T12:38:58;3.00;3.00;2.25
46591;PMS6003;32314;48.748;9.656;2023-03-23T12:45:23;1.75;1.25;1.00
46591;PMS6003;32314;48.748;9.656;2023-03-23T12:48:18;3.00;2.75;2.00
46591;PMS6003;32314;48.748;9.656;2023-03-23T12:51:22;4.00;3.00;3.00
46591;PMS6003;32314;48.748;9.656;2023-03-23T13:00:27;2.00;2.00;1.75
46591;PMS6003;32314;48.748;9.656;2023-03-23T13:03:28;3.25;2.00;2.00
46591;PMS6003;32314;48.748;9.656;2023-03-23T13:06:38;2.50;2.25;2.00
46591;PMS6003;32314;48.748;9.656;2023-03-23T13:09:31;2.50;2.00;2.00
46591;PMS6003;32314;48.748;9.656;2023-03-23T13:12:22;3.75;3.25;2.00
46591;PMS6003;32314;48.748;9.656;2023-03-23T13:18:18;0.00;0.00;0.00
46591;PMS6003;32314;48.748;9.656;2023-03-23T13:21:36;2.50;2.50;2.00
46591;PMS6003;32314;48.748;9.656;2023-03-23T13:24:28;2.00;2.00;1.75
46591;PMS6003;32314;48.748;9.656;2023-03-23T13:27:22;2.50;2.50;2.00
46591;PMS6003;32314;48.748;9.656;2023-03-23T13:30:20;2.00;2.00;2.00
46591;PMS6003;32314;48.748;9.656;2023-03-23T13:33:11;3.00;2.00;2.00
46591;PMS6003;32314;48.748;9.656;2023-03-23T13:36:02;2.25;2.25;2.00
46591;PMS6003;32314;48.748;9.656;2023-03-23T13:38:53;1.50;1.50;1.00
46591;PMS6003;32314;48.748;9.656;2023-03-23T13:48:43;2.00;2.00;2.00
46591;PMS6003;32314;48.748;9.656;2023-03-23T13:52:01;2.00;2.00;2.00
46591;PMS6003;32314;48.748;9.656;2023-03-23T13:55:17;2.50;1.25;1.00
46591;PMS6003;32314;48.748;9.656;2023-03-23T14:01:12;3.00;3.00;2.75
46591;PMS6003;32314;48.748;9.656;2023-03-23T14:04:10;3.75;2.00;2.00
46591;PMS6003;32314;48.748;9.656;2023-03-23T14:07:15;2.75;2.75;2.75
46591;PMS6003;32314;48.748;9.656;2023-03-23T14:10:06;4.00;2.00;2.00
46591;PMS6003;32314;48.748;9.656;2023-03-23T14:12:56;2.75;2.75;2.75
46591;PMS6003;32314;48.748;9.656;2023-03-23T14:16:04;3.00;3.00;1.75
46591;PMS6003;32314;48.748;9.656;2023-03-23T14:19:00;0.00;0.00;0.00
46591;PMS6003;32314;48.748;9.656;2023-03-23T14:21:54;2.00;2.00;2.00
46591;PMS6003;32314;48.748;9.656;2023-03-23T14:24:41;2.00;2.00;2.00
46591;PMS6003;32314;48.748;9.656;2023-03-23T14:27:27;2.00;2.00;2.00
46591;PMS6003;32314;48.748;9.656;2023-03-23T14:30:15;3.25;3.00;2.75
46591;PMS6003;32314;48.748;9.656;2023-03-23T14:33:25;3.50;3.00;3.00
46591;PMS6003;32314;48.748;9.656;2023-03-23T14:36:30;2.00;2.00;2.00
46591;PMS6003;32314;48.748;9.656;2023-03-23T14:39:24;2.25;2.25;2.00
46591;PMS6003;32314;48.748;9.656;2023-03-23T14:42:14;3.00;3.00;2.25
46591;PMS6003;32314;48.748;9.656;2023-03-23T14:45:03;3.00;3.00;2.00
46591;PMS6003;32314;48.748;9.656;2023-03-23T14:47:54;2.25;2.25;2.00
46591;PMS6003;32314;48.748;9.656;2023-03-23T14:50:50;3.00;3.00;2.00
46591;PMS6003;32314;48.748;9.656;2023-03-23T14:53:38;3.75;3.75;3.25
46591;PMS6003;32314;48.748;9.656;2023-03-23T14:56:30;3.00;3.00;3.00
46591;PMS6003;32314;48.748;9.656;2023-03-23T14:59:23;3.00;3.00;3.00
46591;PMS6003;32314;48.748;9.656;2023-03-23T15:02:32;5.00;3.25;3.00
46591;PMS6003;32314;48.748;9.656;2023-03-23T15:08:22;4.00;4.00;3.50
46591;PMS6003;32314;48.748;9.656;2023-03-23T15:14:20;2.00;2.00;2.00
46591;PMS6003;32314;48.748;9.656;2023-03-23T15:17:09;3.00;3.00;3.00
46591;PMS6003;32314;48.748;9.656;2023-03-23T15:20:09;3.50;3.50;3.50
46591;PMS6003;32314;48.748;9.656;2023-03-23T15:23:06;7.00;5.00;4.00
46591;PMS6003;32314;48.748;9.656;2023-03-23T15:25:54;4.00;3.25;3.00
46591;PMS6003;32314;48.748;9.656;2023-03-23T15:28:41;3.00;2.75;2.00
46591;PMS6003;32314;48.748;9.656;2023-03-23T15:31:27;3.50;3.50;3.25
46591;PMS6003;32314;48.748;9.656;2023-03-23T15:34:16;3.00;3.00;3.00
46591;PMS6003;32314;48.748;9.656;2023-03-23T15:40:42;3.00;3.00;3.00
46591;PMS6003;32314;48.748;9.656;2023-03-23T15:43:31;9.00;7.75;6.50
46591;PMS6003;32314;48.748;9.656;2023-03-23T15:46:23;4.25;4.25;4.00
46591;PMS6003;32314;48.748;9.656;2023-03-23T15:49:12;4.50;3.00;3.00
46591;PMS6003;32314;48.748;9.656;2023-03-23T15:52:04;3.00;2.50;2.00
46591;PMS6003;32314;48.748;9.656;2023-03-23T15:54:58;5.00;4.00;3.00
46591;PMS6003;32314;48.748;9.656;2023-03-23T15:57:46;2.75;2.75;2.50
46591;PMS6003;32314;48.748;9.656;2023-03-23T16:00:34;4.00;4.00;3.75
46591;PMS6003;32314;48.748;9.656;2023-03-23T16:03:24;2.75;2.75;2.00
46591;PMS6003;32314;48.748;9.656;2023-03-23T16:06:12;3.50;3.50;3.00
46591;PMS6003;32314;48.748;9.656;2023-03-23T16:09:00;3.75;3.75;3.25
46591;PMS6003;32314;48.748;9.656;2023-03-23T16:11:47;5.00;5.00;4.00
46591;PMS6003;32314;48.748;9.656;2023-03-23T16:14:33;3.00;3.00;3.00
46591;PMS6003;32314;48.748;9.656;2023-03-23T16:17:19;5.50;4.25;3.25
46591;PMS6003;32314;48.748;9.656;2023-03-23T16:20:17;2.00;2.00;2.00
46591;PMS6003;32314;48.748;9.656;2023-03-23T16:23:11;4.00;4.00;3.00
46591;PMS6003;32314;48.748;9.656;2023-03-23T16:25:57;4.00;4.00;4.00
46591;PMS6003;32314;48.748;9.656;2023-03-23T16:28:43;4.50;4.50;4.00
46591;PMS6003;32314;48.748;9.656;2023-03-23T16:31:29;5.00;3.25;3.00
46591;PMS6003;32314;48.748;9.656;2023-03-23T16:34:18;4.00;4.00;3.00
46591;PMS6003;32314;48.748;9.656;2023-03-23T16:37:04;3.00;3.00;2.50
46591;PMS6003;32314;48.748;9.656;2023-03-23T16:39:51;3.00;3.00;3.00
46591;PMS6003;32314;48.748;9.656;2023-03-23T16:42:39;3.25;3.00;3.00
46591;PMS6003;32314;48.748;9.656;2023-03-23T16:45:26;5.00;5.00;4.50
46591;PMS6003;32314;48.748;9.656;2023-03-23T16:48:12;4.75;4.75;4.00
46591;PMS6003;32314;48.748;9.656;2023-03-23T16:51:00;65.33;52.33;33.00
46591;PMS6003;32314;48.748;9.656;2023-03-23T16:53:46;29.25;28.50;22.50
46591;PMS6003;32314;48.748;9.656;2023-03-23T16:56:32;13.75;13.25;11.00
46591;PMS6003;32314;48.748;9.656;2023-03-23T16:59:18;49.00;42.00;30.00
46591;PMS6003;32314;48.748;9.656;2023-03-23T17:02:05;54.67;46.33;34.33
46591;PMS6003;32314;48.748;9.656;2023-03-23T17:04:51;53.75;43.25;28.00
46591;PMS6003;32314;48.748;9.656;2023-03-23T17:07:38;7.50;7.25;7.00
46591;PMS6003;32314;48.748;9.656;2023-03-23T17:10:25;12.25;12.25;9.75
46591;PMS6003;32314;48.748;9.656;2023-03-23T17:13:16;8.50;8.50;6.75
46591;PMS6003;32314;48.748;9.656;2023-03-23T17:16:03;9.25;9.25;8.25
46591;PMS6003;32314;48.748;9.656;2023-03-23T17:18:49;24.50;24.50;18.50
46591;PMS6003;32314;48.748;9.656;2023-03-23T17:21:40;10.75;9.00;8.75
46591;PMS6003;32314;48.748;9.656;2023-03-23T17:24:26;66.33;53.00;36.33
46591;PMS6003;32314;48.748;9.656;2023-03-23T17:27:15;7.50;7.50;6.25
46591;PMS6003;32314;48.748;9.656;2023-03-23T17:30:03;7.75;7.50;6.50
46591;PMS6003;32314;48.748;9.656;2023-03-23T17:32:51;8.75;8.75;7.75
46591;PMS6003;32314;48.748;9.656;2023-03-23T17:35:38;5.00;5.00;4.00
46591;PMS6003;32314;48.748;9.656;2023-03-23T17:38:23;6.00;6.00;5.00
46591;PMS6003;32314;48.748;9.656;2023-03-23T17:41:09;10.00;10.00;8.25
46591;PMS6003;32314;48.748;9.656;2023-03-23T17:43:56;6.00;6.00;5.25
46591;PMS6003;32314;48.748;9.656;2023-03-23T17:46:42;6.50;6.00;5.25
46591;PMS6003;32314;48.748;9.656;2023-03-23T17:49:27;9.00;9.00;7.00
46591;PMS6003;32314;48.748;9.656;2023-03-23T17:52:16;7.75;7.50;6.75
46591;PMS6003;32314;48.748;9.656;2023-03-23T17:55:02;7.00;7.00;6.00
46591;PMS6003;32314;48.748;9.656;2023-03-23T17:57:49;7.00;7.00;6.00
46591;PMS6003;32314;48.748;9.656;2023-03-23T18:00:35;15.50;15.50;13.25
46591;PMS6003;32314;48.748;9.656;2023-03-23T18:03:22;9.25;9.25;7.50
46591;PMS6003;32314;48.748;9.656;2023-03-23T18:06:10;11.25;9.75;8.00
46591;PMS6003;32314;48.748;9.656;2023-03-23T18:08:57;10.00;10.00;7.75
46591;PMS6003;32314;48.748;9.656;2023-03-23T18:11:42;6.00;6.00;5.00
46591;PMS6003;32314;48.748;9.656;2023-03-23T18:14:28;6.25;6.25;5.75
46591;PMS6003;32314;48.748;9.656;2023-03-23T18:17:17;9.00;9.00;7.75
46591;PMS6003;32314;48.748;9.656;2023-03-23T18:20:04;11.50;11.50;9.75